Logo AVAMET
Benvolgut visitant, si us plau, ingressa Recuperar contrasenya
AVAMET paisatges

Inforatge Borriana Ajuntament

Dades diàries. Acumulats / Últims 30 dies disponibles

Data Temperatura (°C) Humitat rel. (%) Pressió rel. (hPa) Vent (km/h) Precipitació
Mínima Mitjana Màxima Amplitud
tèrmica
Mínima Mitjana Màxima Mínima Mitjana Màxima Predom. Mitjana Ràfega
màxima
Total
(mm)
Índex-n
Mínima Mitjana Màxima Mínima Mitjana Màxima n
0 a 1
P0 max
mm 5'
Dades mensuals acumulades fins l'últim dia disponible
03/2020 5,8 10,5 14,7 14,0 11,3 17,7 24,9 19,1 29 71 95 999 1.020 1.032   6,8 82,1 43,4
Dades anuals acumulades fins l'últim dia disponible
2020 3,2 9,3 14,7 13,0 10,6 17,3 25,8 22,6 22 72 95 999 1.026 1.038   5,8 82,1 124,8
Últims 30 dies disponibles
30-03-2020 7,4     11,5     14,7 7,3 54 68 86 1.015 1.017 1.018 WNW 5,0 22,5 2,2
29-03-2020 9,6     14,7     20,3 10,7 45 65 80 1.016 1.019 1.022 WNW 6,9 30,6 0,0
28-03-2020 6,9     12,0     16,7 9,8 47 66 81 1.020 1.021 1.023 WNW 6,6 29,0 0,0
27-03-2020 6,8     10,2     13,7 6,9 57 73 84 1.016 1.018 1.020 WNW 7,1 32,2 0,0
26-03-2020 5,8     10,1     16,4 10,6 41 73 89 1.011 1.013 1.017 WNW 7,6 38,6 0,0
25-03-2020 8,4     9,8     11,3 2,9 71 83 90 1.017 1.020 1.022 NNE 4,2 22,5 4,6 0,42 0,40
24-03-2020 10,1     13,1     14,4 4,3 73 81 90 1.020 1.021 1.022 NE 15,0 49,9 1,6 0,20
23-03-2020 11,8     13,7     15,8 4,0 77 88 93 1.018 1.020 1.022 ENE 7,9 35,4 5,4 0,58 0,60
22-03-2020 10,9     13,0     15,4 4,5 71 85 92 1.015 1.016 1.019 WNW 5,3 24,1 3,8 0,20
21-03-2020 10,6     12,7     14,8 4,2 71 81 87 1.015 1.018 1.021 WNW 4,8 20,9 0,0
20-03-2020 11,2     13,1     15,7 4,5 72 83 88 1.021 1.022 1.024 WNW 7,1 32,2 0,0
19-03-2020 9,7     12,8     16,2 6,5 73 83 90 1.024 1.026 1.029 WNW 6,1 30,6 0,0
18-03-2020 10,9     13,2     15,9 5,0 73 84 90 1.028 1.030 1.032 ENE 7,6 37,0 0,0
17-03-2020 11,9     13,7     14,8 2,9 84 91 95 1.022 1.028 1.032 NNE 8,2 43,5 19,6 0,33 0,70
16-03-2020 12,7     13,8     15,6 2,9 86 90 93 1.015 1.017 1.023 ENE 5,3 33,8 6,2 0,37 0,60
15-03-2020 10,2     13,9     17,6 7,4 69 83 89 1.018 1.021 1.024 WNW 5,1 27,4 0,0
14-03-2020 10,7     14,2     17,5 6,8 59 78 88 1.022 1.023 1.025 E 4,0 24,1 0,0
13-03-2020 11,0     14,6     18,1 7,1 65 78 94 1.021 1.023 1.025 ENE 5,5 30,6 0,0
12-03-2020 10,9     14,2     18,5 7,6 72 83 93 1.021 1.023 1.025 ENE 3,9 19,3 0,0
11-03-2020 10,4     15,6     20,5 10,1 47 70 82 1.025 1.026 1.027 E 4,3 20,9 0,0
10-03-2020 11,5     14,0     15,7 4,2 49 69 83 1.026 1.027 1.029 SE 3,9 24,1 0,0
09-03-2020 11,1     15,3     18,7 7,6 44 57 71 1.023 1.025 1.026 WNW 4,2 19,3 0,0
08-03-2020 9,7     14,1     18,7 9,0 45 63 77 1.024 1.026 1.028 WNW 5,3 22,5 0,0
07-03-2020 9,2     13,7     18,7 9,5 38 49 67 1.023 1.025 1.027 WNW 5,6 32,2 0,0
06-03-2020 12,3     14,8     18,2 5,9 29 43 54 1.014 1.017 1.024 WNW 8,9 51,5 0,0
05-03-2020 13,3     18,8     24,7 11,4 29 50 68 1.008 1.012 1.018 WNW 8,5 46,7 0,0
04-03-2020 12,8     18,0     24,9 12,1 47 64 82 1.017 1.018 1.020 WNW 5,1 24,1 0,0
03-03-2020 10,5     16,6     23,7 13,2 33 43 58 1.010 1.016 1.020 WNW 10,1 49,9 0,0
02-03-2020 12,1     17,1     20,9 8,8 30 49 69 999 1.008 1.018 WNW 17,7 82,1 0,0
01-03-2020 14,7     18,8     23,6 8,9 35 51 75 1.012 1.014 1.017 W 8,0 38,6 0,0
Últims 13 mesos disponibles
02/2020 6,5 10,0 13,7 14,1 14,2 18,8 25,8 19,3 47 72 87 1.015 1.028 1.036 WNW 4,7 48,3 0,0
01/2020 3,2 7,4 12,6 10,9 10,6 15,5 21,0 17,8 58 75 92 1.021 1.028 1.035 WNW 5,9 72,4 81,4
12/2019 6,0 10,3 17,2 13,6 12,6 17,6 25,8 19,8 47 71 91 1.004 1.021 1.036 WNW 5,7 75,6 102,0
11/2019 6,9 12,1 19,3 15,6 15,4 20,0 28,3 21,4 41 56 77 1.000 1.013 1.021 WNW 6,5 54,7 3,0
10/2019 10,5 16,4 20,2 20,0 15,6 24,1 28,4 17,9 48 71 84 1.009 1.019 1.025 WNW 5,5 45,1 18,8
09/2019 15,2 20,1 23,6 23,4 21,2 27,1 32,1 16,9 52 73 82 1.012 1.021 1.028 S 6,9 59,6 83,2
08/2019 17,6 22,0 25,2 25,9 26,8 29,6 33,3 15,7 56 73 80 1.013 1.019 1.023 SSO 6,5 59,6 39,8
07/2019 21,4 22,6 24,5 26,4 27,7 30,0 33,6 12,2 51 68 80 1.008 1.017 1.024 S 6,7 45,0 12,4
06/2019 11,9 18,3 22,7 22,5 21,5 26,3 34,4 22,5 44 66 79 1.011 1.018 1.025 SSE 7,4 50,0 0,0
05/2019 10,1 14,3 17,5 17,9 17,6 21,8 27,9 17,8 53 69 85 1.007 1.017 1.026 S 6,9 53,7 12,6
04/2019 7,6 11,8 15,2 15,1 11,7 18,9 25,8 18,2 49 67 88 1.002 1.016 1.028 SSO 8,5 64,8 31,8
03/2019 7,7 9,9 12,2 14,2 12,8 18,6 24,8 17,1 45 61 84 1.014 1.026 1.033 SO 6,6 50,0 11,8
02/2019 3,1 7,5 11,8 11,8 13,8 16,8 21,7 18,6 28 66 78 996 1.028 1.037 SO 5,9 72,4 0,0
Tots els anys disponibles
2019 3,1 14,4 25,2 18,1 11,7 22,2 34,4 31,3 28 66 91 996 1.020 1.037 S 6,6 75,6 317,2
Temperatura (°C)
Humitat relativa (%)
Velocitat del vent i ràfega màxima (km/h)
Direcció del vent (°)
Pressió (hPa)
Precipitació (mm)
Nota sobre les dades: s'avisa a l'usuari de la provisionalitat i no oficialitat d'aquestes dades
Logo AVAMET blanc
Web allotjada a Sollutia
Llicència de Creative CommonsLa web d'AVAMET i els seus continguts estan subjectes a una llicència de
Reconeixement - No Comercial - Compartir igual
Últimes estacions:  Altea - Com. Regants (Soci), Almoines (Inforatge), Beniparrell (Inforatge), Albal (Inforatge), Almussafes - Parc Industrial (Inforatge), La Vilavella (Soci), la Serratella (soci) - - -